Simcha — PE7688 — position and weather

sailwx.info

Track history (hours):
 
Tides and Currents Weather Stations Pressure Air Temp Water Temp Dewpoint Dewpoint Depression Visibility Wind Speed Wind Dir Waves Ship Positions

Simcha

Last reported at 2015-Jun-30 13:27 UTC. Time now 2015-Jul-01 12:52 UTC.
Position N 51°58' E 005°56'.

Length 110 m.

Type: Ship. MMSI: 244780014.

Date/timePositionNaut miles runAvg speedWind from/ knotsBaromVisibWave heightAir tempDewpointWater temp
2015-Jun-30 13:27N 51°58' E 005°56'27 4.5
2015-Jun-30 07:23N 51°58' E 005°11'3 3.5
2015-Jun-30 06:33N 51°60' E 005°08'3 3.3
2015-Jun-30 05:33N 51°59' E 005°03'7 1.6
2015-Jun-30 01:21N 51°56' E 004°52'0 0.0
2015-Jun-30 00:33N 51°56' E 004°52'3 0.7
2015-Jun-29 19:33N 51°55' E 004°47'5 5.5
2015-Jun-29 18:33N 51°53' E 004°39'5 5.2
2015-Jun-29 17:31N 51°55' E 004°30'5 5.3
2015-Jun-29 16:33N 51°54' E 004°22'0 0.2
2015-Jun-29 15:33N 51°54' E 004°22'0 0.0
2015-Jun-29 14:27N 51°54' E 004°22'0 0.1
2015-Jun-29 13:32N 51°54' E 004°22'0 0.1
2015-Jun-29 12:29N 51°54' E 004°22'0 0.0
2015-Jun-29 11:33N 51°54' E 004°22'0 0.0
2015-Jun-29 10:34N 51°54' E 004°22'0 0.0
2015-Jun-29 09:33N 51°54' E 004°22'3 3.1
2015-Jun-29 08:33N 51°54' E 004°27'6 6.0
2015-Jun-29 07:33N 51°54' E 004°36'19 1.3
2015-Jun-28 17:17N 52°00' E 005°05'3 4.0
2015-Jun-28 16:33N 52°03' E 005°06'13 6.0
2015-Jun-28 14:29N 52°15' E 005°01'6 6.2
2015-Jun-28 13:33N 52°21' E 004°60'2 1.8
2015-Jun-28 12:33N 52°22' E 004°59'6 6.2
2015-Jun-28 11:33N 52°25' E 005°08'7 6.6
2015-Jun-28 10:33N 52°28' E 005°18'7 5.6
2015-Jun-28 09:13N 52°33' E 005°27'4 6.6
2015-Jun-28 08:33N 52°36' E 005°32'7 6.7
2015-Jun-28 07:29N 52°36' E 005°44'5 5.8
2015-Jun-28 06:33N 52°37' E 005°53'6 6.1
2015-Jun-28 05:33N 52°38' E 006°03'1 1.0
2015-Jun-28 04:33N 52°38' E 006°04'0 0.0
2015-Jun-28 03:33N 52°38' E 006°04'0 0.0
2015-Jun-28 02:33N 52°38' E 006°04'0 0.0
2015-Jun-28 01:33N 52°38' E 006°04'0 0.0
2015-Jun-28 00:33N 52°38' E 006°04'0 0.0
2015-Jun-27 23:33N 52°38' E 006°04'0 0.0
2015-Jun-27 22:33N 52°38' E 006°04'0 0.0
2015-Jun-27 21:33N 52°38' E 006°04'0 0.0
2015-Jun-27 20:33N 52°38' E 006°04'0 0.0
2015-Jun-27 19:33N 52°38' E 006°04'0 0.0
2015-Jun-27 18:33N 52°38' E 006°04'0 0.0
2015-Jun-27 17:33N 52°38' E 006°04'0 0.0
2015-Jun-27 16:33N 52°38' E 006°04'0 0.0
2015-Jun-27 15:33N 52°38' E 006°04'0 0.0
2015-Jun-27 14:33N 52°38' E 006°04'0 0.0
2015-Jun-27 13:33N 52°38' E 006°04'0 0.0
2015-Jun-27 12:33N 52°38' E 006°04'0 0.0
2015-Jun-27 11:33N 52°38' E 006°04'0 0.0
2015-Jun-27 10:33N 52°38' E 006°04'0 0.0
2015-Jun-27 09:33N 52°38' E 006°04'0 0.0
2015-Jun-27 08:33N 52°38' E 006°04'0 0.0
2015-Jun-27 07:33N 52°38' E 006°04'0 0.0
2015-Jun-27 06:33N 52°38' E 006°04'0 0.0
2015-Jun-27 05:33N 52°38' E 006°04'0 0.0
2015-Jun-27 04:33N 52°38' E 006°04'0 0.0
2015-Jun-27 03:33N 52°38' E 006°04'0 0.0
2015-Jun-27 02:33N 52°38' E 006°04'0 0.0
2015-Jun-27 01:33N 52°38' E 006°04'0 0.0
2015-Jun-27 00:33N 52°38' E 006°04'0 0.0
2015-Jun-26 23:33N 52°38' E 006°04'0 0.0
2015-Jun-26 22:33N 52°38' E 006°04'0 0.0
2015-Jun-26 21:33N 52°38' E 006°04'0 0.0
2015-Jun-26 20:33N 52°38' E 006°04'0 0.0
2015-Jun-26 19:33N 52°38' E 006°04'0 0.0
2015-Jun-26 18:33N 52°38' E 006°04'0 0.0
2015-Jun-26 17:33N 52°38' E 006°04'0 0.0
2015-Jun-26 16:33N 52°38' E 006°04'0 0.0
2015-Jun-26 15:33N 52°38' E 006°04'0 0.0
2015-Jun-26 14:33N 52°38' E 006°04'0 0.0
2015-Jun-26 13:33N 52°38' E 006°04'0 0.0
2015-Jun-26 12:33N 52°38' E 006°04'0 0.0
2015-Jun-24 18:31N 52°38' E 006°05'4 4.2
2015-Jun-24 17:28N 52°34' E 006°06'4 3.4
2015-Jun-24 16:21N 52°31' E 006°03'  
Track history (hours):
 
Tides and Currents Weather Stations Pressure Air Temp Water Temp Dewpoint Dewpoint Depression Visibility Wind Speed Wind Dir Waves Ship Positions

Simcha

Last reported at 2015-Jun-30 13:27 UTC. Time now 2015-Jul-01 12:52 UTC.
Position N 51°58' E 005°56'.

Length 110 m.

Type: Ship. MMSI: 244780014.

Date/timePositionNaut miles runAvg speedWind from/ knotsBaromVisibWave heightAir tempDewpointWater temp
2015-Jun-30 13:27N 51°58' E 005°56'27 4.5
2015-Jun-30 07:23N 51°58' E 005°11'3 3.5
2015-Jun-30 06:33N 51°60' E 005°08'3 3.3
2015-Jun-30 05:33N 51°59' E 005°03'7 1.6
2015-Jun-30 01:21N 51°56' E 004°52'0 0.0
2015-Jun-30 00:33N 51°56' E 004°52'3 0.7
2015-Jun-29 19:33N 51°55' E 004°47'5 5.5
2015-Jun-29 18:33N 51°53' E 004°39'5 5.2
2015-Jun-29 17:31N 51°55' E 004°30'5 5.3
2015-Jun-29 16:33N 51°54' E 004°22'0 0.2
2015-Jun-29 15:33N 51°54' E 004°22'0 0.0
2015-Jun-29 14:27N 51°54' E 004°22'0 0.1
2015-Jun-29 13:32N 51°54' E 004°22'0 0.1
2015-Jun-29 12:29N 51°54' E 004°22'0 0.0
2015-Jun-29 11:33N 51°54' E 004°22'0 0.0
2015-Jun-29 10:34N 51°54' E 004°22'0 0.0
2015-Jun-29 09:33N 51°54' E 004°22'3 3.1
2015-Jun-29 08:33N 51°54' E 004°27'6 6.0
2015-Jun-29 07:33N 51°54' E 004°36'19 1.3
2015-Jun-28 17:17N 52°00' E 005°05'3 4.0
2015-Jun-28 16:33N 52°03' E 005°06'13 6.0
2015-Jun-28 14:29N 52°15' E 005°01'6 6.2
2015-Jun-28 13:33N 52°21' E 004°60'2 1.8
2015-Jun-28 12:33N 52°22' E 004°59'6 6.2
2015-Jun-28 11:33N 52°25' E 005°08'7 6.6
2015-Jun-28 10:33N 52°28' E 005°18'7 5.6
2015-Jun-28 09:13N 52°33' E 005°27'4 6.6
2015-Jun-28 08:33N 52°36' E 005°32'7 6.7
2015-Jun-28 07:29N 52°36' E 005°44'5 5.8
2015-Jun-28 06:33N 52°37' E 005°53'6 6.1
2015-Jun-28 05:33N 52°38' E 006°03'1 1.0
2015-Jun-28 04:33N 52°38' E 006°04'0 0.0
2015-Jun-28 03:33N 52°38' E 006°04'0 0.0
2015-Jun-28 02:33N 52°38' E 006°04'0 0.0
2015-Jun-28 01:33N 52°38' E 006°04'0 0.0
2015-Jun-28 00:33N 52°38' E 006°04'0 0.0
2015-Jun-27 23:33N 52°38' E 006°04'0 0.0
2015-Jun-27 22:33N 52°38' E 006°04'0 0.0
2015-Jun-27 21:33N 52°38' E 006°04'0 0.0
2015-Jun-27 20:33N 52°38' E 006°04'0 0.0
2015-Jun-27 19:33N 52°38' E 006°04'0 0.0
2015-Jun-27 18:33N 52°38' E 006°04'0 0.0
2015-Jun-27 17:33N 52°38' E 006°04'0 0.0
2015-Jun-27 16:33N 52°38' E 006°04'0 0.0
2015-Jun-27 15:33N 52°38' E 006°04'0 0.0
2015-Jun-27 14:33N 52°38' E 006°04'0 0.0
2015-Jun-27 13:33N 52°38' E 006°04'0 0.0
2015-Jun-27 12:33N 52°38' E 006°04'0 0.0
2015-Jun-27 11:33N 52°38' E 006°04'0 0.0
2015-Jun-27 10:33N 52°38' E 006°04'0 0.0
2015-Jun-27 09:33N 52°38' E 006°04'0 0.0
2015-Jun-27 08:33N 52°38' E 006°04'0 0.0
2015-Jun-27 07:33N 52°38' E 006°04'0 0.0
2015-Jun-27 06:33N 52°38' E 006°04'0 0.0
2015-Jun-27 05:33N 52°38' E 006°04'0 0.0
2015-Jun-27 04:33N 52°38' E 006°04'0 0.0
2015-Jun-27 03:33N 52°38' E 006°04'0 0.0
2015-Jun-27 02:33N 52°38' E 006°04'0 0.0
2015-Jun-27 01:33N 52°38' E 006°04'0 0.0
2015-Jun-27 00:33N 52°38' E 006°04'0 0.0
2015-Jun-26 23:33N 52°38' E 006°04'0 0.0
2015-Jun-26 22:33N 52°38' E 006°04'0 0.0
2015-Jun-26 21:33N 52°38' E 006°04'0 0.0
2015-Jun-26 20:33N 52°38' E 006°04'0 0.0
2015-Jun-26 19:33N 52°38' E 006°04'0 0.0
2015-Jun-26 18:33N 52°38' E 006°04'0 0.0
2015-Jun-26 17:33N 52°38' E 006°04'0 0.0
2015-Jun-26 16:33N 52°38' E 006°04'0 0.0
2015-Jun-26 15:33N 52°38' E 006°04'0 0.0
2015-Jun-26 14:33N 52°38' E 006°04'0 0.0
2015-Jun-26 13:33N 52°38' E 006°04'0 0.0
2015-Jun-26 12:33N 52°38' E 006°04'0 0.0
2015-Jun-24 18:31N 52°38' E 006°05'4 4.2
2015-Jun-24 17:28N 52°34' E 006°06'4 3.4
2015-Jun-24 16:21N 52°31' E 006°03'  

Dump ship's entire track history